createdAt,value
2023-05-14T00:02:04.578Z,95.20
2023-05-14T00:04:31.722Z,95.40
2023-05-14T00:06:59.186Z,95.90
2023-05-14T00:09:26.213Z,95.70
2023-05-14T00:11:55.469Z,95.60
2023-05-14T00:14:22.452Z,95.60
2023-05-14T00:16:49.716Z,95.60
2023-05-14T00:19:16.639Z,95.60
2023-05-14T00:21:43.871Z,95.60
2023-05-14T00:24:10.861Z,95.50
2023-05-14T00:26:37.852Z,95.80
2023-05-14T00:29:07.332Z,95.80
2023-05-14T00:31:34.654Z,96.50
2023-05-14T00:34:03.155Z,96.40
2023-05-14T00:36:30.175Z,96.50
2023-05-14T00:38:59.665Z,96.60
2023-05-14T00:41:28.743Z,96.80
2023-05-14T00:43:55.779Z,96.50
2023-05-14T00:46:22.686Z,96.60
2023-05-14T00:48:51.042Z,96.60
2023-05-14T00:51:20.110Z,96.60
2023-05-14T00:53:47.763Z,96.50
2023-05-14T00:56:15.441Z,96.60
2023-05-14T00:58:42.799Z,96.60
2023-05-14T01:01:15.451Z,96.80
2023-05-14T01:03:42.967Z,96.70
2023-05-14T01:06:16.689Z,96.80
2023-05-14T01:08:46.011Z,96.90
2023-05-14T01:11:20.305Z,97.00
2023-05-14T01:13:52.967Z,97.00
2023-05-14T01:16:21.487Z,97.10
2023-05-14T01:18:53.138Z,97.10
2023-05-14T01:21:42.113Z,97.10
2023-05-14T01:24:09.386Z,97.00
2023-05-14T01:26:36.484Z,96.90
2023-05-14T01:29:21.758Z,96.90
2023-05-14T01:31:49.830Z,96.80
2023-05-14T01:34:18.115Z,96.80
2023-05-14T01:36:45.264Z,97.10
2023-05-14T01:39:15.294Z,96.90
2023-05-14T01:41:43.021Z,97.20
2023-05-14T01:44:12.503Z,97.00
2023-05-14T01:46:39.484Z,97.00
2023-05-14T01:49:06.208Z,97.00
2023-05-14T01:51:35.684Z,97.20
2023-05-14T01:54:02.591Z,97.20
2023-05-14T01:56:32.357Z,97.20
2023-05-14T01:58:59.146Z,97.20
2023-05-14T02:01:26.290Z,97.10
2023-05-14T02:03:53.368Z,97.20
2023-05-14T02:06:20.111Z,97.30
2023-05-14T02:08:47.583Z,97.40
2023-05-14T02:11:14.654Z,97.50
2023-05-14T02:13:41.380Z,97.40
2023-05-14T02:16:08.374Z,97.40
2023-05-14T02:18:35.097Z,97.40
2023-05-14T02:21:01.861Z,97.30
2023-05-14T02:23:40.422Z,97.20
2023-05-14T02:26:09.528Z,97.20
2023-05-14T02:28:36.579Z,97.20
2023-05-14T02:31:03.624Z,97.10
2023-05-14T02:33:30.588Z,97.10
2023-05-14T02:35:58.046Z,97.10
2023-05-14T02:38:26.098Z,97.10
2023-05-14T02:40:59.045Z,97.30
2023-05-14T02:43:26.911Z,97.30
2023-05-14T02:45:54.098Z,97.20
2023-05-14T02:48:21.292Z,97.40
2023-05-14T02:50:49.790Z,97.50
2023-05-14T02:53:19.288Z,97.40
2023-05-14T02:55:46.415Z,97.50
2023-05-14T02:58:14.196Z,97.50
2023-05-14T03:00:46.640Z,97.50
2023-05-14T03:03:14.574Z,97.40
2023-05-14T03:05:44.669Z,97.40
2023-05-14T03:08:11.957Z,97.40
2023-05-14T03:10:39.482Z,97.40
2023-05-14T03:13:07.863Z,97.40
2023-05-14T03:15:34.805Z,97.50
2023-05-14T03:18:01.689Z,97.50
2023-05-14T03:20:30.164Z,97.50
2023-05-14T03:22:56.869Z,97.40
2023-05-14T03:25:24.414Z,97.40
2023-05-14T03:27:53.033Z,97.60
2023-05-14T03:30:22.598Z,97.80
2023-05-14T03:32:51.034Z,97.80
2023-05-14T03:35:20.190Z,97.90
2023-05-14T03:37:49.682Z,97.80
2023-05-14T03:40:16.835Z,97.70
2023-05-14T03:42:46.471Z,97.50
2023-05-14T03:45:15.240Z,97.40
2023-05-14T03:47:42.115Z,97.30
2023-05-14T03:50:13.582Z,97.10
2023-05-14T03:52:41.931Z,96.90
2023-05-14T03:55:08.836Z,97.00
2023-05-14T03:57:37.067Z,97.10
2023-05-14T04:00:05.961Z,97.30
2023-05-14T04:02:47.694Z,97.30
2023-05-14T04:05:15.823Z,97.30
2023-05-14T04:07:46.476Z,97.30
2023-05-14T04:10:18.051Z,97.40
2023-05-14T04:12:46.545Z,97.40
2023-05-14T04:15:14.376Z,97.50
2023-05-14T04:17:43.077Z,97.60
2023-05-14T04:20:12.975Z,97.50
2023-05-14T04:22:39.882Z,97.50
2023-05-14T04:25:07.141Z,97.60
2023-05-14T04:27:35.772Z,97.60
2023-05-14T04:30:04.808Z,97.60
2023-05-14T04:32:34.417Z,97.70
2023-05-14T04:35:01.131Z,97.60
2023-05-14T04:37:28.193Z,97.40
2023-05-14T04:39:55.590Z,97.30
2023-05-14T04:42:22.810Z,97.30
2023-05-14T04:44:49.571Z,97.30
2023-05-14T04:47:16.289Z,97.30
2023-05-14T04:49:45.253Z,97.20
2023-05-14T04:52:11.889Z,96.90
2023-05-14T04:54:38.794Z,96.60
2023-05-14T04:57:06.086Z,96.40
2023-05-14T04:59:34.481Z,96.30
2023-05-14T05:02:01.183Z,96.30
2023-05-14T05:04:31.668Z,96.10
2023-05-14T05:06:58.669Z,96.00
2023-05-14T05:09:25.588Z,95.80
2023-05-14T05:11:53.930Z,95.80
2023-05-14T05:14:20.672Z,95.70
2023-05-14T05:16:48.042Z,95.60
2023-05-14T05:19:15.132Z,95.10
2023-05-14T05:21:42.947Z,94.80
2023-05-14T05:24:09.997Z,94.70
2023-05-14T05:26:37.221Z,94.40
2023-05-14T05:29:04.483Z,94.20
2023-05-14T05:31:40.112Z,94.00
2023-05-14T05:34:07.156Z,93.90
2023-05-14T05:36:33.796Z,93.70
2023-05-14T05:39:00.865Z,93.50
2023-05-14T05:41:27.788Z,93.40
2023-05-14T05:43:54.478Z,93.20
2023-05-14T05:46:21.606Z,93.30
2023-05-14T05:48:53.569Z,93.20
2023-05-14T05:51:23.041Z,93.30
2023-05-14T05:53:52.509Z,93.40
2023-05-14T05:56:19.525Z,93.40
2023-05-14T05:58:46.230Z,93.30
2023-05-14T06:01:13.248Z,92.70
2023-05-14T06:03:40.259Z,92.80
2023-05-14T06:06:07.276Z,92.80
2023-05-14T06:08:36.713Z,92.60
2023-05-14T06:11:06.006Z,92.50
2023-05-14T06:13:35.355Z,92.60
2023-05-14T06:16:02.151Z,92.50
2023-05-14T06:18:29.141Z,92.40
2023-05-14T06:20:57.388Z,92.30
2023-05-14T06:23:24.409Z,92.20
2023-05-14T06:25:51.463Z,92.20
2023-05-14T06:28:18.477Z,92.20
2023-05-14T06:30:45.552Z,92.20
2023-05-14T06:33:13.874Z,92.20
2023-05-14T06:35:40.958Z,91.20
2023-05-14T06:38:07.669Z,90.90
2023-05-14T06:40:34.452Z,90.70
2023-05-14T06:43:01.424Z,90.60
2023-05-14T06:45:28.087Z,90.70
2023-05-14T06:47:55.783Z,90.50
2023-05-14T06:50:25.648Z,90.70
2023-05-14T06:52:52.803Z,90.80
2023-05-14T06:55:22.253Z,90.90
2023-05-14T06:57:48.980Z,90.80
2023-05-14T07:00:15.960Z,91.10
2023-05-14T07:02:43.170Z,91.10
2023-05-14T07:05:13.511Z,91.00
2023-05-14T07:07:40.579Z,91.20
2023-05-14T07:10:08.224Z,91.30
2023-05-14T07:12:35.152Z,91.20
2023-05-14T07:15:02.151Z,91.10
2023-05-14T07:17:28.940Z,90.90
2023-05-14T07:19:56.243Z,91.10
2023-05-14T07:22:23.261Z,91.00
2023-05-14T07:24:50.538Z,91.10
2023-05-14T07:27:17.545Z,90.80
2023-05-14T07:29:44.569Z,90.80
2023-05-14T07:32:15.563Z,90.50
2023-05-14T07:34:43.097Z,90.10
2023-05-14T07:37:10.131Z,89.20
2023-05-14T07:39:37.131Z,90.00
2023-05-14T07:42:04.613Z,89.20
2023-05-14T07:44:33.956Z,88.60
2023-05-14T07:47:04.518Z,89.20
2023-05-14T07:49:31.542Z,88.90
2023-05-14T07:51:58.840Z,88.60
2023-05-14T07:54:27.966Z,87.70
2023-05-14T07:56:54.910Z,86.70
2023-05-14T07:59:21.714Z,86.50
2023-05-14T08:01:48.654Z,86.80
2023-05-14T08:04:16.566Z,87.20
2023-05-14T08:06:46.185Z,86.00
2023-05-14T08:09:14.411Z,85.00
2023-05-14T08:11:41.593Z,83.80
2023-05-14T08:14:08.311Z,84.40
2023-05-14T08:16:35.416Z,82.50
2023-05-14T08:19:02.515Z,81.00
2023-05-14T08:21:33.017Z,80.60
2023-05-14T08:24:02.317Z,80.10
2023-05-14T08:26:29.350Z,77.80
2023-05-14T08:28:56.500Z,74.30
2023-05-14T08:31:23.586Z,72.80
2023-05-14T08:33:50.937Z,72.00
2023-05-14T08:36:17.900Z,72.30
2023-05-14T08:38:47.146Z,73.10
2023-05-14T08:41:17.845Z,72.90
2023-05-14T08:43:47.978Z,71.90
2023-05-14T08:46:17.526Z,71.60
2023-05-14T08:48:48.227Z,69.60
2023-05-14T08:51:15.629Z,69.50
2023-05-14T08:53:44.094Z,70.00
2023-05-14T08:56:13.113Z,68.60
2023-05-14T08:58:42.824Z,67.90
2023-05-14T09:01:16.020Z,67.40
2023-05-14T09:03:44.898Z,68.30
2023-05-14T09:06:14.289Z,67.20
2023-05-14T09:08:43.979Z,65.60
2023-05-14T09:11:10.920Z,64.50
2023-05-14T09:13:38.783Z,61.10
2023-05-14T09:16:05.862Z,62.00
2023-05-14T09:18:35.838Z,62.40
2023-05-14T09:21:02.905Z,60.40
2023-05-14T09:23:32.469Z,59.10
2023-05-14T09:26:03.716Z,60.50
2023-05-14T09:28:30.611Z,60.40
2023-05-14T09:30:57.557Z,60.20
2023-05-14T09:33:28.676Z,61.40
2023-05-14T09:35:59.883Z,60.40
2023-05-14T09:38:31.128Z,61.20
2023-05-14T09:41:00.560Z,60.80
2023-05-14T09:43:27.654Z,62.20
2023-05-14T09:45:54.763Z,62.80
2023-05-14T09:48:22.488Z,63.40
2023-05-14T09:50:49.639Z,63.60
2023-05-14T09:53:18.029Z,62.10
2023-05-14T09:55:45.478Z,61.40
2023-05-14T09:58:14.525Z,61.30
2023-05-14T10:00:44.609Z,59.40
2023-05-14T10:03:17.179Z,59.90
2023-05-14T10:05:51.699Z,58.00
2023-05-14T10:08:22.049Z,56.90
2023-05-14T10:10:51.185Z,56.50
2023-05-14T10:13:20.526Z,57.30
2023-05-14T10:15:55.598Z,53.70
2023-05-14T10:18:23.581Z,51.10
2023-05-14T10:20:57.392Z,51.20
2023-05-14T10:23:24.444Z,48.80
2023-05-14T10:25:51.453Z,48.40
2023-05-14T10:28:18.465Z,48.90
2023-05-14T10:30:51.507Z,50.10
2023-05-14T10:33:19.020Z,49.50
2023-05-14T10:35:56.707Z,47.90
2023-05-14T10:38:28.604Z,48.10
2023-05-14T10:41:05.343Z,47.80
2023-05-14T10:43:37.210Z,46.70
2023-05-14T10:46:07.013Z,46.60
2023-05-14T10:48:34.286Z,46.20
2023-05-14T10:51:03.572Z,46.40
2023-05-14T10:53:38.459Z,47.20
2023-05-14T10:56:09.353Z,48.60
2023-05-14T10:58:40.362Z,43.50
2023-05-14T11:01:08.948Z,42.60
2023-05-14T11:03:43.379Z,41.60
2023-05-14T11:06:11.295Z,42.70
2023-05-14T11:08:41.090Z,41.30
2023-05-14T11:11:09.752Z,42.10
2023-05-14T11:13:36.828Z,42.60
2023-05-14T11:16:11.955Z,43.40
2023-05-14T11:18:53.415Z,44.10
2023-05-14T11:21:21.501Z,46.20
2023-05-14T11:23:48.597Z,43.20
2023-05-14T11:26:15.675Z,42.30
2023-05-14T11:28:43.516Z,42.20
2023-05-14T11:31:11.849Z,41.70
2023-05-14T11:33:39.975Z,42.20
2023-05-14T11:36:07.095Z,44.30
2023-05-14T11:38:34.179Z,43.70
2023-05-14T11:41:03.392Z,43.40
2023-05-14T11:43:30.992Z,44.80
2023-05-14T11:45:57.931Z,44.70
2023-05-14T11:48:25.477Z,45.50
2023-05-14T11:50:52.549Z,45.50
2023-05-14T11:53:20.064Z,45.80
2023-05-14T11:55:47.452Z,45.00
2023-05-14T11:58:15.894Z,44.00
2023-05-14T12:00:44.817Z,42.90
2023-05-14T12:03:12.604Z,41.50
2023-05-14T12:05:40.204Z,40.00
2023-05-14T12:08:23.173Z,40.10
2023-05-14T12:10:58.856Z,40.70
2023-05-14T12:13:29.463Z,38.90
2023-05-14T12:16:00.765Z,39.80
2023-05-14T12:18:32.169Z,40.40
2023-05-14T12:21:03.094Z,36.80
2023-05-14T12:23:32.521Z,36.80
2023-05-14T12:26:03.843Z,35.60
2023-05-14T12:28:31.077Z,35.00
2023-05-14T12:30:58.640Z,34.40
2023-05-14T12:33:27.019Z,33.80
2023-05-14T12:35:54.209Z,33.10
2023-05-14T12:38:21.296Z,33.20
2023-05-14T12:40:48.336Z,32.70
2023-05-14T12:43:20.150Z,32.40
2023-05-14T12:45:47.161Z,33.10
2023-05-14T12:48:14.978Z,33.80
2023-05-14T12:50:44.641Z,32.80
2023-05-14T12:53:11.697Z,32.30
2023-05-14T12:55:38.489Z,33.00
2023-05-14T12:58:05.240Z,32.80
2023-05-14T13:00:32.015Z,33.20
2023-05-14T13:02:59.095Z,32.70
2023-05-14T13:05:26.502Z,31.60
2023-05-14T13:07:54.050Z,31.00
2023-05-14T13:10:20.934Z,30.30
2023-05-14T13:12:47.716Z,30.50
2023-05-14T13:15:16.945Z,29.90
2023-05-14T13:17:46.286Z,31.20
2023-05-14T13:20:13.508Z,30.00
2023-05-14T13:22:40.214Z,29.90
2023-05-14T13:25:07.531Z,29.60
2023-05-14T13:27:35.852Z,30.00
2023-05-14T13:30:03.292Z,29.60
2023-05-14T13:32:32.679Z,29.60
2023-05-14T13:34:59.478Z,30.70
2023-05-14T13:37:26.359Z,31.20
2023-05-14T13:39:53.416Z,31.90
2023-05-14T13:42:22.463Z,31.60
2023-05-14T13:44:49.353Z,31.00
2023-05-14T13:47:16.522Z,30.10
2023-05-14T13:49:44.179Z,30.20
2023-05-14T13:52:11.232Z,30.40
2023-05-14T13:54:38.283Z,30.30
2023-05-14T13:57:05.769Z,31.30
2023-05-14T13:59:35.612Z,31.40
2023-05-14T14:02:02.707Z,33.00
2023-05-14T14:04:30.504Z,35.90
2023-05-14T14:06:57.327Z,39.20
2023-05-14T14:09:25.071Z,41.60
2023-05-14T14:11:52.493Z,44.10
2023-05-14T14:14:19.316Z,45.20
2023-05-14T14:16:48.812Z,44.40
2023-05-14T14:19:17.716Z,43.40
2023-05-14T14:21:46.606Z,41.90
2023-05-14T14:24:13.752Z,41.00
2023-05-14T14:26:43.357Z,40.60
2023-05-14T14:29:10.603Z,41.30
2023-05-14T14:31:40.145Z,41.30
2023-05-14T14:34:11.460Z,42.00
2023-05-14T14:36:38.543Z,41.70
2023-05-14T14:39:05.356Z,42.30
2023-05-14T14:41:35.501Z,41.70
2023-05-14T14:44:03.844Z,42.90
2023-05-14T14:46:34.182Z,43.20
2023-05-14T14:49:01.252Z,43.10
2023-05-14T14:51:30.764Z,43.60
2023-05-14T14:53:59.762Z,43.30
2023-05-14T14:56:27.491Z,43.50
2023-05-14T14:58:56.758Z,46.10
2023-05-14T15:01:25.836Z,47.40
2023-05-14T15:03:52.757Z,49.60
2023-05-14T15:06:33.016Z,54.90
2023-05-14T15:09:08.066Z,75.60
2023-05-14T15:11:37.497Z,82.30
2023-05-14T15:14:04.937Z,85.40
2023-05-14T15:16:31.737Z,87.40
2023-05-14T15:19:01.026Z,90.30
2023-05-14T15:21:28.203Z,90.10
2023-05-14T15:23:55.310Z,90.80
2023-05-14T15:28:49.111Z,90.60
2023-05-14T15:31:16.204Z,90.90
2023-05-14T15:33:45.867Z,90.10
2023-05-14T15:36:13.183Z,90.00
2023-05-14T15:38:43.748Z,89.90
2023-05-14T15:41:12.065Z,88.80
2023-05-14T15:43:38.870Z,88.20
2023-05-14T15:46:05.697Z,87.40
2023-05-14T15:48:32.817Z,87.20
2023-05-14T15:50:59.654Z,84.10
2023-05-14T15:53:26.711Z,85.00
2023-05-14T15:55:53.659Z,81.40
2023-05-14T15:58:23.125Z,81.50
2023-05-14T16:00:49.838Z,76.80
2023-05-14T16:03:17.270Z,75.60
2023-05-14T16:05:45.074Z,75.20
2023-05-14T16:08:12.130Z,73.50
2023-05-14T16:10:38.844Z,68.50
2023-05-14T16:13:07.230Z,70.30
2023-05-14T16:15:34.159Z,66.70
2023-05-14T16:18:03.862Z,68.30
2023-05-14T16:20:30.658Z,66.60
2023-05-14T16:23:00.873Z,67.00
2023-05-14T16:25:30.372Z,67.20
2023-05-14T16:27:57.083Z,67.70
2023-05-14T16:30:29.465Z,67.60
2023-05-14T16:32:56.510Z,67.00
2023-05-14T16:35:24.730Z,68.90
2023-05-14T16:37:53.883Z,71.10
2023-05-14T16:40:23.357Z,72.50
2023-05-14T16:42:54.153Z,71.80
2023-05-14T16:45:24.120Z,71.10
2023-05-14T16:47:51.046Z,71.70
2023-05-14T16:50:18.095Z,72.70
2023-05-14T16:52:47.624Z,74.00
2023-05-14T16:55:14.959Z,75.40
2023-05-14T16:57:43.830Z,76.20
2023-05-14T17:00:11.274Z,76.90
2023-05-14T17:02:38.026Z,77.30
2023-05-14T17:05:05.943Z,76.70
2023-05-14T17:07:35.066Z,77.60
2023-05-14T17:10:02.561Z,78.60
2023-05-14T17:12:29.627Z,79.50
2023-05-14T17:14:58.542Z,79.80
2023-05-14T17:17:25.738Z,80.10
2023-05-14T17:19:52.764Z,80.00
2023-05-14T17:22:21.923Z,80.30
2023-05-14T17:24:48.863Z,80.60
2023-05-14T17:27:16.657Z,80.10
2023-05-14T17:29:44.350Z,80.50
2023-05-14T17:32:11.397Z,80.60
2023-05-14T17:34:38.463Z,81.20
2023-05-14T17:37:05.461Z,81.70
2023-05-14T17:39:32.240Z,81.90
2023-05-14T17:41:59.236Z,82.10
2023-05-14T17:44:30.457Z,82.00
2023-05-14T17:46:57.230Z,81.70
2023-05-14T17:49:24.275Z,82.10
2023-05-14T17:51:51.117Z,81.20
2023-05-14T17:54:17.858Z,81.10
2023-05-14T17:56:44.807Z,81.10
2023-05-14T17:59:11.541Z,81.40
2023-05-14T18:01:38.659Z,81.60
2023-05-14T18:04:05.936Z,82.30
2023-05-14T18:06:33.029Z,82.70
2023-05-14T18:09:01.209Z,83.30
2023-05-14T18:11:35.263Z,84.00
2023-05-14T18:14:02.972Z,84.60
2023-05-14T18:16:31.812Z,85.10
2023-05-14T18:19:01.210Z,86.30
2023-05-14T18:21:28.781Z,87.60
2023-05-14T18:23:57.215Z,88.50
2023-05-14T18:26:26.204Z,89.10
2023-05-14T18:28:53.959Z,89.10
2023-05-14T18:31:23.609Z,89.60
2023-05-14T18:33:50.777Z,89.50
2023-05-14T18:36:18.577Z,89.60
2023-05-14T18:38:48.810Z,89.90
2023-05-14T18:41:16.791Z,90.10
2023-05-14T18:43:45.121Z,89.90
2023-05-14T18:46:13.060Z,89.70
2023-05-14T18:48:40.715Z,89.50
2023-05-14T18:51:09.999Z,89.40
2023-05-14T18:53:41.241Z,90.00
2023-05-14T18:56:09.826Z,90.20
2023-05-14T18:58:39.357Z,90.20
2023-05-14T19:01:06.374Z,89.90
2023-05-14T19:03:37.182Z,89.80
2023-05-14T19:06:04.717Z,90.20
2023-05-14T19:08:31.465Z,90.30
2023-05-14T19:11:00.594Z,90.60
2023-05-14T19:13:30.631Z,90.80
2023-05-14T19:16:00.834Z,91.00
2023-05-14T19:18:31.050Z,91.10
2023-05-14T19:21:01.374Z,91.20
2023-05-14T19:23:30.763Z,91.40
2023-05-14T19:25:59.985Z,91.30
2023-05-14T19:28:29.659Z,91.30
2023-05-14T19:30:57.521Z,91.30
2023-05-14T19:33:24.357Z,91.40
2023-05-14T19:35:51.551Z,91.40
2023-05-14T19:38:20.000Z,91.50
2023-05-14T19:40:52.255Z,91.60
2023-05-14T19:43:21.139Z,91.70
2023-05-14T19:45:48.507Z,91.70
2023-05-14T19:48:16.051Z,91.70
2023-05-14T19:50:42.827Z,91.70
2023-05-14T19:53:09.556Z,91.80
2023-05-14T19:55:36.577Z,92.00
2023-05-14T19:58:03.657Z,92.10
2023-05-14T20:00:30.749Z,92.20
2023-05-14T20:02:59.824Z,92.20
2023-05-14T20:05:27.211Z,92.30
2023-05-14T20:07:57.179Z,92.40
2023-05-14T20:10:24.253Z,92.70
2023-05-14T20:12:53.533Z,92.70
2023-05-14T20:15:21.167Z,92.90
2023-05-14T20:17:48.329Z,92.80
2023-05-14T20:20:16.903Z,92.70
2023-05-14T20:22:44.397Z,92.70
2023-05-14T20:25:11.515Z,92.60
2023-05-14T20:27:38.719Z,92.60
2023-05-14T20:30:06.125Z,92.70
2023-05-14T20:32:33.394Z,92.70
2023-05-14T20:35:02.412Z,92.60
2023-05-14T20:37:30.739Z,92.60
2023-05-14T20:39:57.962Z,92.70
2023-05-14T20:42:24.760Z,92.80
2023-05-14T20:44:51.991Z,92.80
2023-05-14T20:47:20.428Z,92.90
2023-05-14T20:49:48.698Z,93.00
2023-05-14T20:52:16.578Z,93.10
2023-05-14T20:54:44.055Z,93.20
2023-05-14T20:57:12.027Z,93.30
2023-05-14T20:59:38.838Z,93.50
2023-05-14T21:02:06.406Z,93.60
2023-05-14T21:04:36.390Z,93.60
2023-05-14T21:07:06.236Z,93.90
2023-05-14T21:09:33.179Z,93.70
2023-05-14T21:12:00.179Z,93.70
2023-05-14T21:14:27.060Z,93.70
2023-05-14T21:16:54.068Z,93.70
2023-05-14T21:19:21.029Z,93.70
2023-05-14T21:21:48.022Z,93.80
2023-05-14T21:24:16.990Z,93.70
2023-05-14T21:26:43.739Z,93.80
2023-05-14T21:29:13.111Z,93.90
2023-05-14T21:31:40.613Z,93.80
2023-05-14T21:34:09.946Z,93.80
2023-05-14T21:36:37.117Z,93.80
2023-05-14T21:39:03.925Z,93.80
2023-05-14T21:41:32.076Z,93.80
2023-05-14T21:43:58.776Z,93.90
2023-05-14T21:46:25.847Z,93.90
2023-05-14T21:48:52.927Z,93.80
2023-05-14T21:51:20.076Z,93.70
2023-05-14T21:53:48.668Z,93.60
2023-05-14T21:56:15.520Z,93.60
2023-05-14T21:58:42.614Z,93.60
2023-05-14T22:01:11.840Z,93.60
2023-05-14T22:03:38.920Z,93.60
2023-05-14T22:06:07.907Z,93.60
2023-05-14T22:08:34.873Z,93.60
2023-05-14T22:11:02.192Z,93.70
2023-05-14T22:13:28.911Z,93.80
2023-05-14T22:16:05.264Z,93.80
2023-05-14T22:18:38.945Z,93.90
2023-05-14T22:21:06.399Z,93.90
2023-05-14T22:23:33.912Z,93.90
2023-05-14T22:26:01.583Z,93.90
2023-05-14T22:28:29.353Z,93.90
2023-05-14T22:30:59.925Z,93.80
2023-05-14T22:33:28.280Z,93.80
2023-05-14T22:35:56.022Z,93.80
2023-05-14T22:38:24.203Z,93.90
2023-05-14T22:40:51.254Z,94.00
2023-05-14T22:43:19.204Z,94.20
2023-05-14T22:45:46.429Z,94.00
2023-05-14T22:48:13.487Z,94.00
2023-05-14T22:50:45.720Z,94.00
2023-05-14T22:53:13.022Z,94.10
2023-05-14T22:55:40.090Z,94.00
2023-05-14T22:58:07.199Z,94.10
2023-05-14T23:00:34.223Z,94.20
2023-05-14T23:03:02.812Z,94.30
2023-05-14T23:05:30.386Z,94.30
2023-05-14T23:07:59.002Z,94.30
2023-05-14T23:10:25.791Z,94.30
2023-05-14T23:12:55.480Z,94.40
2023-05-14T23:15:24.490Z,94.40
2023-05-14T23:17:59.844Z,94.20
2023-05-14T23:20:28.828Z,94.30
2023-05-14T23:22:58.304Z,94.30
2023-05-14T23:25:25.482Z,94.30
2023-05-14T23:27:54.849Z,94.20
2023-05-14T23:30:23.247Z,94.10
2023-05-14T23:32:51.648Z,94.10
2023-05-14T23:35:18.726Z,94.10
2023-05-14T23:37:49.686Z,94.10
2023-05-14T23:40:18.885Z,94.10
2023-05-14T23:42:46.409Z,94.20
2023-05-14T23:45:23.245Z,94.20
2023-05-14T23:47:51.764Z,94.30
2023-05-14T23:50:18.974Z,94.20
2023-05-14T23:52:47.763Z,94.10
2023-05-14T23:55:14.916Z,94.10
2023-05-14T23:57:43.046Z,94.30
